sensor_id;sensor_type;location;lat;lon;timestamp;pressure;altitude;pressure_sealevel;temperature;humidity
74524;BME280;63074;44.696;10.358;2023-03-01T00:02:14;100451.19;;;3.75;100.00
74524;BME280;63074;44.696;10.358;2023-03-01T00:04:40;100444.75;;;3.84;100.00
74524;BME280;63074;44.696;10.358;2023-03-01T00:07:06;100443.69;;;3.93;100.00
74524;BME280;63074;44.696;10.358;2023-03-01T00:09:32;100447.34;;;3.92;100.00
74524;BME280;63074;44.696;10.358;2023-03-01T00:11:58;100440.63;;;3.81;100.00
74524;BME280;63074;44.696;10.358;2023-03-01T00:14:25;100438.91;;;3.88;100.00
74524;BME280;63074;44.696;10.358;2023-03-01T00:16:51;100433.75;;;3.87;100.00
74524;BME280;63074;44.696;10.358;2023-03-01T00:19:19;100427.81;;;3.85;100.00
74524;BME280;63074;44.696;10.358;2023-03-01T00:21:45;100425.16;;;3.85;100.00
74524;BME280;63074;44.696;10.358;2023-03-01T00:24:13;100427.72;;;3.93;100.00
74524;BME280;63074;44.696;10.358;2023-03-01T00:26:40;100431.03;;;3.95;100.00
74524;BME280;63074;44.696;10.358;2023-03-01T00:29:06;100423.13;;;3.87;100.00
74524;BME280;63074;44.696;10.358;2023-03-01T00:31:33;100426.63;;;3.87;100.00
74524;BME280;63074;44.696;10.358;2023-03-01T00:34:03;100423.50;;;3.84;100.00
74524;BME280;63074;44.696;10.358;2023-03-01T00:36:32;100418.63;;;3.87;100.00
74524;BME280;63074;44.696;10.358;2023-03-01T00:38:58;100421.31;;;3.87;100.00
74524;BME280;63074;44.696;10.358;2023-03-01T00:41:25;100421.94;;;3.89;100.00
74524;BME280;63074;44.696;10.358;2023-03-01T00:43:55;100416.53;;;3.83;100.00
74524;BME280;63074;44.696;10.358;2023-03-01T00:46:24;100420.38;;;3.80;100.00
74524;BME280;63074;44.696;10.358;2023-03-01T00:48:51;100419.06;;;3.76;100.00
74524;BME280;63074;44.696;10.358;2023-03-01T00:51:23;100420.25;;;3.59;100.00
74524;BME280;63074;44.696;10.358;2023-03-01T00:53:51;100417.44;;;3.60;100.00
74524;BME280;63074;44.696;10.358;2023-03-01T00:56:19;100413.41;;;3.64;100.00
74524;BME280;63074;44.696;10.358;2023-03-01T00:58:45;100403.84;;;3.55;100.00
74524;BME280;63074;44.696;10.358;2023-03-01T01:01:24;100397.63;;;3.63;100.00
74524;BME280;63074;44.696;10.358;2023-03-01T01:04:01;100385.63;;;3.67;100.00
74524;BME280;63074;44.696;10.358;2023-03-01T01:06:31;100392.50;;;3.61;100.00
74524;BME280;63074;44.696;10.358;2023-03-01T01:08:57;100389.31;;;3.66;100.00
74524;BME280;63074;44.696;10.358;2023-03-01T01:11:26;100384.44;;;3.69;100.00
74524;BME280;63074;44.696;10.358;2023-03-01T01:13:52;100373.63;;;3.71;100.00
74524;BME280;63074;44.696;10.358;2023-03-01T01:16:20;100373.44;;;3.87;100.00
74524;BME280;63074;44.696;10.358;2023-03-01T01:18:46;100370.59;;;3.89;100.00
74524;BME280;63074;44.696;10.358;2023-03-01T01:21:15;100369.78;;;3.88;100.00
74524;BME280;63074;44.696;10.358;2023-03-01T01:23:43;100361.25;;;3.78;100.00
74524;BME280;63074;44.696;10.358;2023-03-01T01:28:43;100349.06;;;3.69;100.00
74524;BME280;63074;44.696;10.358;2023-03-01T01:31:09;100348.41;;;3.82;100.00
74524;BME280;63074;44.696;10.358;2023-03-01T01:33:36;100340.91;;;3.85;100.00
74524;BME280;63074;44.696;10.358;2023-03-01T01:36:04;100332.09;;;3.99;100.00
74524;BME280;63074;44.696;10.358;2023-03-01T01:38:30;100325.31;;;3.97;100.00
74524;BME280;63074;44.696;10.358;2023-03-01T01:40:56;100327.22;;;4.03;100.00
74524;BME280;63074;44.696;10.358;2023-03-01T01:43:30;100324.00;;;4.07;100.00
74524;BME280;63074;44.696;10.358;2023-03-01T01:46:03;100324.56;;;4.03;100.00
74524;BME280;63074;44.696;10.358;2023-03-01T01:48:54;100326.78;;;3.99;100.00
74524;BME280;63074;44.696;10.358;2023-03-01T01:51:25;100324.16;;;4.06;100.00
74524;BME280;63074;44.696;10.358;2023-03-01T01:53:56;100327.28;;;4.10;100.00
74524;BME280;63074;44.696;10.358;2023-03-01T01:56:25;100325.59;;;4.02;100.00
74524;BME280;63074;44.696;10.358;2023-03-01T01:58:52;100322.09;;;3.87;100.00
74524;BME280;63074;44.696;10.358;2023-03-01T02:01:20;100317.34;;;3.97;100.00
74524;BME280;63074;44.696;10.358;2023-03-01T02:03:47;100312.72;;;4.05;100.00
74524;BME280;63074;44.696;10.358;2023-03-01T02:06:21;100312.94;;;4.04;100.00
74524;BME280;63074;44.696;10.358;2023-03-01T02:08:59;100320.91;;;4.04;100.00
74524;BME280;63074;44.696;10.358;2023-03-01T02:11:26;100318.25;;;4.04;100.00
74524;BME280;63074;44.696;10.358;2023-03-01T02:13:53;100314.75;;;4.03;100.00
74524;BME280;63074;44.696;10.358;2023-03-01T02:16:20;100303.09;;;4.04;100.00
74524;BME280;63074;44.696;10.358;2023-03-01T02:18:47;100307.22;;;4.07;100.00
74524;BME280;63074;44.696;10.358;2023-03-01T02:21:55;100303.34;;;4.10;100.00
74524;BME280;63074;44.696;10.358;2023-03-01T02:27:06;100294.53;;;4.09;100.00
74524;BME280;63074;44.696;10.358;2023-03-01T02:29:32;100290.88;;;4.10;100.00
74524;BME280;63074;44.696;10.358;2023-03-01T02:32:01;100287.06;;;3.98;100.00
74524;BME280;63074;44.696;10.358;2023-03-01T02:34:28;100279.75;;;4.00;100.00
74524;BME280;63074;44.696;10.358;2023-03-01T02:37:10;100280.69;;;3.78;100.00
74524;BME280;63074;44.696;10.358;2023-03-01T02:39:45;100276.28;;;3.85;100.00
74524;BME280;63074;44.696;10.358;2023-03-01T02:42:21;100270.50;;;3.81;100.00
74524;BME280;63074;44.696;10.358;2023-03-01T02:44:50;100265.56;;;3.78;100.00
74524;BME280;63074;44.696;10.358;2023-03-01T02:47:16;100273.63;;;3.85;100.00
74524;BME280;63074;44.696;10.358;2023-03-01T02:49:42;100263.44;;;3.88;100.00
74524;BME280;63074;44.696;10.358;2023-03-01T02:52:15;100267.09;;;3.87;100.00
74524;BME280;63074;44.696;10.358;2023-03-01T02:55:06;100258.31;;;3.87;100.00
74524;BME280;63074;44.696;10.358;2023-03-01T02:57:36;100251.75;;;3.68;100.00
74524;BME280;63074;44.696;10.358;2023-03-01T03:00:12;100247.94;;;3.77;100.00
74524;BME280;63074;44.696;10.358;2023-03-01T03:02:49;100254.28;;;3.76;100.00
74524;BME280;63074;44.696;10.358;2023-03-01T03:05:19;100250.44;;;3.79;100.00
74524;BME280;63074;44.696;10.358;2023-03-01T03:07:47;100243.13;;;3.66;100.00
74524;BME280;63074;44.696;10.358;2023-03-01T03:10:21;100242.59;;;3.70;100.00
74524;BME280;63074;44.696;10.358;2023-03-01T03:12:52;100234.06;;;3.60;100.00
74524;BME280;63074;44.696;10.358;2023-03-01T03:15:19;100236.00;;;3.52;100.00
74524;BME280;63074;44.696;10.358;2023-03-01T03:17:47;100239.38;;;3.60;100.00
74524;BME280;63074;44.696;10.358;2023-03-01T03:20:16;100241.44;;;3.80;100.00
74524;BME280;63074;44.696;10.358;2023-03-01T03:22:46;100239.59;;;3.80;100.00
74524;BME280;63074;44.696;10.358;2023-03-01T03:25:12;100236.75;;;3.82;100.00
74524;BME280;63074;44.696;10.358;2023-03-01T03:27:40;100230.81;;;3.80;100.00
74524;BME280;63074;44.696;10.358;2023-03-01T03:30:10;100229.78;;;3.81;100.00
74524;BME280;63074;44.696;10.358;2023-03-01T03:32:42;100241.25;;;3.81;100.00
74524;BME280;63074;44.696;10.358;2023-03-01T03:35:22;100230.69;;;3.52;100.00
74524;BME280;63074;44.696;10.358;2023-03-01T03:37:50;100229.47;;;3.54;100.00
74524;BME280;63074;44.696;10.358;2023-03-01T03:40:39;100225.81;;;3.70;100.00
74524;BME280;63074;44.696;10.358;2023-03-01T03:43:17;100224.66;;;3.79;100.00
74524;BME280;63074;44.696;10.358;2023-03-01T03:45:45;100221.63;;;3.82;100.00
74524;BME280;63074;44.696;10.358;2023-03-01T03:48:11;100224.63;;;3.72;100.00
74524;BME280;63074;44.696;10.358;2023-03-01T03:50:40;100220.78;;;3.60;100.00
74524;BME280;63074;44.696;10.358;2023-03-01T03:53:11;100222.97;;;3.57;100.00
74524;BME280;63074;44.696;10.358;2023-03-01T03:55:38;100228.75;;;3.75;100.00
74524;BME280;63074;44.696;10.358;2023-03-01T03:58:09;100220.53;;;3.77;100.00
74524;BME280;63074;44.696;10.358;2023-03-01T04:00:37;100224.28;;;3.82;100.00
74524;BME280;63074;44.696;10.358;2023-03-01T04:03:04;100230.94;;;3.71;100.00
74524;BME280;63074;44.696;10.358;2023-03-01T04:05:31;100221.88;;;3.66;100.00
74524;BME280;63074;44.696;10.358;2023-03-01T04:07:58;100228.84;;;3.67;100.00
74524;BME280;63074;44.696;10.358;2023-03-01T04:10:47;100220.13;;;3.73;100.00
74524;BME280;63074;44.696;10.358;2023-03-01T04:13:16;100217.34;;;3.81;100.00
74524;BME280;63074;44.696;10.358;2023-03-01T04:15:42;100215.50;;;3.82;100.00
74524;BME280;63074;44.696;10.358;2023-03-01T04:18:11;100222.34;;;3.91;100.00
74524;BME280;63074;44.696;10.358;2023-03-01T04:20:38;100216.13;;;3.84;100.00
74524;BME280;63074;44.696;10.358;2023-03-01T04:23:16;100211.19;;;3.81;100.00
74524;BME280;63074;44.696;10.358;2023-03-01T04:25:50;100211.47;;;3.86;100.00
74524;BME280;63074;44.696;10.358;2023-03-01T04:28:32;100211.09;;;3.89;100.00
74524;BME280;63074;44.696;10.358;2023-03-01T04:31:10;100209.69;;;3.93;100.00
74524;BME280;63074;44.696;10.358;2023-03-01T04:33:46;100209.81;;;3.85;100.00
74524;BME280;63074;44.696;10.358;2023-03-01T04:36:14;100209.50;;;3.94;100.00
74524;BME280;63074;44.696;10.358;2023-03-01T04:38:42;100208.06;;;3.77;100.00
74524;BME280;63074;44.696;10.358;2023-03-01T04:41:14;100205.59;;;3.76;100.00
74524;BME280;63074;44.696;10.358;2023-03-01T04:43:41;100203.38;;;3.94;100.00
74524;BME280;63074;44.696;10.358;2023-03-01T04:46:15;100214.09;;;4.00;100.00
74524;BME280;63074;44.696;10.358;2023-03-01T04:48:43;100210.16;;;3.96;100.00
74524;BME280;63074;44.696;10.358;2023-03-01T04:51:10;100204.13;;;4.09;100.00
74524;BME280;63074;44.696;10.358;2023-03-01T04:53:40;100207.94;;;4.00;100.00
74524;BME280;63074;44.696;10.358;2023-03-01T04:56:06;100208.16;;;3.84;100.00
74524;BME280;63074;44.696;10.358;2023-03-01T04:58:33;100212.53;;;3.91;100.00
74524;BME280;63074;44.696;10.358;2023-03-01T05:00:59;100202.44;;;4.01;100.00
74524;BME280;63074;44.696;10.358;2023-03-01T05:03:25;100212.66;;;4.04;100.00
74524;BME280;63074;44.696;10.358;2023-03-01T05:05:52;100210.84;;;4.05;100.00
74524;BME280;63074;44.696;10.358;2023-03-01T05:08:19;100217.38;;;4.02;100.00
74524;BME280;63074;44.696;10.358;2023-03-01T05:10:49;100206.94;;;4.01;100.00
74524;BME280;63074;44.696;10.358;2023-03-01T05:13:16;100195.91;;;4.04;100.00
74524;BME280;63074;44.696;10.358;2023-03-01T05:15:54;100203.91;;;4.04;100.00
74524;BME280;63074;44.696;10.358;2023-03-01T05:18:22;100210.53;;;3.93;100.00
74524;BME280;63074;44.696;10.358;2023-03-01T05:20:52;100200.34;;;3.97;100.00
74524;BME280;63074;44.696;10.358;2023-03-01T05:23:18;100212.47;;;3.85;100.00
74524;BME280;63074;44.696;10.358;2023-03-01T05:25:45;100204.53;;;3.70;100.00
74524;BME280;63074;44.696;10.358;2023-03-01T05:28:12;100201.88;;;3.70;100.00
74524;BME280;63074;44.696;10.358;2023-03-01T05:30:38;100202.06;;;3.68;100.00
74524;BME280;63074;44.696;10.358;2023-03-01T05:33:07;100207.72;;;3.80;100.00
74524;BME280;63074;44.696;10.358;2023-03-01T05:35:43;100194.94;;;3.69;100.00
74524;BME280;63074;44.696;10.358;2023-03-01T05:38:11;100196.75;;;3.68;100.00
74524;BME280;63074;44.696;10.358;2023-03-01T05:40:40;100203.66;;;3.84;100.00
74524;BME280;63074;44.696;10.358;2023-03-01T05:43:06;100205.25;;;3.79;100.00
74524;BME280;63074;44.696;10.358;2023-03-01T05:45:33;100200.44;;;3.67;100.00
74524;BME280;63074;44.696;10.358;2023-03-01T05:47:59;100203.78;;;3.76;100.00
74524;BME280;63074;44.696;10.358;2023-03-01T05:50:28;100197.63;;;3.76;100.00
74524;BME280;63074;44.696;10.358;2023-03-01T05:53:20;100207.22;;;3.91;100.00
74524;BME280;63074;44.696;10.358;2023-03-01T05:55:49;100204.41;;;3.78;100.00
74524;BME280;63074;44.696;10.358;2023-03-01T05:58:18;100206.84;;;3.58;100.00
74524;BME280;63074;44.696;10.358;2023-03-01T06:00:48;100212.91;;;3.52;100.00
74524;BME280;63074;44.696;10.358;2023-03-01T06:03:16;100212.63;;;3.62;100.00
74524;BME280;63074;44.696;10.358;2023-03-01T06:05:43;100207.22;;;3.55;100.00
74524;BME280;63074;44.696;10.358;2023-03-01T06:08:10;100214.63;;;3.60;100.00
74524;BME280;63074;44.696;10.358;2023-03-01T06:10:37;100210.59;;;3.64;100.00
74524;BME280;63074;44.696;10.358;2023-03-01T06:13:03;100216.22;;;3.39;100.00
74524;BME280;63074;44.696;10.358;2023-03-01T06:15:30;100209.81;;;3.34;100.00
74524;BME280;63074;44.696;10.358;2023-03-01T06:17:56;100219.06;;;3.23;100.00
74524;BME280;63074;44.696;10.358;2023-03-01T06:20:25;100217.69;;;3.42;100.00
74524;BME280;63074;44.696;10.358;2023-03-01T06:22:51;100220.34;;;3.42;100.00
74524;BME280;63074;44.696;10.358;2023-03-01T06:25:20;100217.75;;;3.49;100.00
74524;BME280;63074;44.696;10.358;2023-03-01T06:27:47;100214.03;;;3.43;100.00
74524;BME280;63074;44.696;10.358;2023-03-01T06:30:17;100221.34;;;3.26;100.00
74524;BME280;63074;44.696;10.358;2023-03-01T06:32:44;100228.88;;;3.23;100.00
74524;BME280;63074;44.696;10.358;2023-03-01T06:35:12;100220.63;;;3.18;100.00
74524;BME280;63074;44.696;10.358;2023-03-01T06:37:39;100221.91;;;3.22;100.00
74524;BME280;63074;44.696;10.358;2023-03-01T06:40:08;100229.16;;;3.13;100.00
74524;BME280;63074;44.696;10.358;2023-03-01T06:42:43;100221.81;;;3.30;100.00
74524;BME280;63074;44.696;10.358;2023-03-01T06:45:10;100225.75;;;3.19;100.00
74524;BME280;63074;44.696;10.358;2023-03-01T06:47:37;100229.63;;;3.17;100.00
74524;BME280;63074;44.696;10.358;2023-03-01T06:50:03;100234.84;;;3.10;100.00
74524;BME280;63074;44.696;10.358;2023-03-01T06:52:29;100238.59;;;3.16;100.00
74524;BME280;63074;44.696;10.358;2023-03-01T06:54:56;100237.56;;;3.31;100.00
74524;BME280;63074;44.696;10.358;2023-03-01T06:57:22;100237.00;;;3.21;100.00
74524;BME280;63074;44.696;10.358;2023-03-01T06:59:48;100235.19;;;3.07;100.00
74524;BME280;63074;44.696;10.358;2023-03-01T07:02:15;100240.22;;;3.02;100.00
74524;BME280;63074;44.696;10.358;2023-03-01T07:04:41;100237.81;;;2.92;100.00
74524;BME280;63074;44.696;10.358;2023-03-01T07:07:08;100243.94;;;2.93;100.00
74524;BME280;63074;44.696;10.358;2023-03-01T07:09:34;100243.41;;;2.83;100.00
74524;BME280;63074;44.696;10.358;2023-03-01T07:12:01;100248.72;;;2.97;100.00
74524;BME280;63074;44.696;10.358;2023-03-01T07:14:27;100248.78;;;2.89;100.00
74524;BME280;63074;44.696;10.358;2023-03-01T07:16:54;100253.56;;;2.94;100.00
74524;BME280;63074;44.696;10.358;2023-03-01T07:19:21;100252.72;;;2.79;100.00
74524;BME280;63074;44.696;10.358;2023-03-01T07:21:47;100251.00;;;2.86;100.00
74524;BME280;63074;44.696;10.358;2023-03-01T07:24:13;100253.66;;;3.00;100.00
74524;BME280;63074;44.696;10.358;2023-03-01T07:26:40;100251.59;;;3.11;100.00
74524;BME280;63074;44.696;10.358;2023-03-01T07:29:07;100247.75;;;3.13;100.00
74524;BME280;63074;44.696;10.358;2023-03-01T07:31:34;100253.94;;;3.20;100.00
74524;BME280;63074;44.696;10.358;2023-03-01T07:34:00;100254.06;;;3.12;100.00
74524;BME280;63074;44.696;10.358;2023-03-01T07:36:26;100253.88;;;3.14;100.00
74524;BME280;63074;44.696;10.358;2023-03-01T07:38:52;100241.59;;;3.27;100.00
74524;BME280;63074;44.696;10.358;2023-03-01T07:41:19;100246.38;;;3.32;100.00
74524;BME280;63074;44.696;10.358;2023-03-01T07:43:45;100256.25;;;3.09;100.00
74524;BME280;63074;44.696;10.358;2023-03-01T07:46:11;100247.72;;;2.98;100.00
74524;BME280;63074;44.696;10.358;2023-03-01T07:48:37;100247.72;;;2.98;100.00
74524;BME280;63074;44.696;10.358;2023-03-01T07:51:05;100240.88;;;3.04;100.00
74524;BME280;63074;44.696;10.358;2023-03-01T07:53:32;100235.09;;;3.00;100.00
74524;BME280;63074;44.696;10.358;2023-03-01T07:56:06;100230.84;;;2.91;100.00
74524;BME280;63074;44.696;10.358;2023-03-01T07:58:35;100227.31;;;2.99;100.00
74524;BME280;63074;44.696;10.358;2023-03-01T08:01:06;100223.38;;;3.10;100.00
74524;BME280;63074;44.696;10.358;2023-03-01T08:03:34;100222.47;;;3.02;100.00
74524;BME280;63074;44.696;10.358;2023-03-01T08:06:04;100227.78;;;3.02;100.00
74524;BME280;63074;44.696;10.358;2023-03-01T08:08:31;100221.38;;;3.12;100.00
74524;BME280;63074;44.696;10.358;2023-03-01T08:10:58;100228.59;;;3.32;100.00
74524;BME280;63074;44.696;10.358;2023-03-01T08:13:25;100231.53;;;3.23;100.00
74524;BME280;63074;44.696;10.358;2023-03-01T08:15:51;100235.91;;;3.01;100.00
74524;BME280;63074;44.696;10.358;2023-03-01T08:18:18;100235.47;;;3.12;100.00
74524;BME280;63074;44.696;10.358;2023-03-01T08:20:45;100238.97;;;3.13;100.00
74524;BME280;63074;44.696;10.358;2023-03-01T08:23:12;100237.94;;;3.14;100.00
74524;BME280;63074;44.696;10.358;2023-03-01T08:25:38;100224.22;;;3.10;100.00
74524;BME280;63074;44.696;10.358;2023-03-01T08:28:05;100218.16;;;3.01;100.00
74524;BME280;63074;44.696;10.358;2023-03-01T08:30:31;100215.41;;;3.10;100.00
74524;BME280;63074;44.696;10.358;2023-03-01T08:32:57;100212.03;;;3.01;100.00
74524;BME280;63074;44.696;10.358;2023-03-01T08:35:24;100202.69;;;3.34;100.00
74524;BME280;63074;44.696;10.358;2023-03-01T08:37:50;100215.31;;;3.18;100.00
74524;BME280;63074;44.696;10.358;2023-03-01T08:40:16;100210.47;;;3.21;100.00
74524;BME280;63074;44.696;10.358;2023-03-01T08:42:42;100206.16;;;3.20;100.00
74524;BME280;63074;44.696;10.358;2023-03-01T08:45:10;100201.78;;;3.13;100.00
74524;BME280;63074;44.696;10.358;2023-03-01T08:47:37;100196.66;;;3.11;100.00
74524;BME280;63074;44.696;10.358;2023-03-01T08:50:04;100188.31;;;2.99;100.00
74524;BME280;63074;44.696;10.358;2023-03-01T08:52:31;100190.63;;;3.17;100.00
74524;BME280;63074;44.696;10.358;2023-03-01T08:54:57;100179.69;;;2.97;100.00
74524;BME280;63074;44.696;10.358;2023-03-01T08:57:24;100179.63;;;3.05;100.00
74524;BME280;63074;44.696;10.358;2023-03-01T08:59:50;100167.59;;;3.24;100.00
74524;BME280;63074;44.696;10.358;2023-03-01T09:02:17;100170.25;;;3.39;100.00
74524;BME280;63074;44.696;10.358;2023-03-01T09:04:44;100170.53;;;3.44;100.00
74524;BME280;63074;44.696;10.358;2023-03-01T09:07:10;100170.56;;;3.65;100.00
74524;BME280;63074;44.696;10.358;2023-03-01T09:09:37;100171.88;;;3.76;100.00
74524;BME280;63074;44.696;10.358;2023-03-01T09:12:04;100171.19;;;3.67;100.00
74524;BME280;63074;44.696;10.358;2023-03-01T09:14:30;100170.94;;;3.62;100.00
74524;BME280;63074;44.696;10.358;2023-03-01T09:16:56;100165.16;;;3.59;100.00
74524;BME280;63074;44.696;10.358;2023-03-01T09:19:23;100156.19;;;3.60;100.00
74524;BME280;63074;44.696;10.358;2023-03-01T09:21:49;100162.69;;;3.57;100.00
74524;BME280;63074;44.696;10.358;2023-03-01T09:24:20;100157.19;;;3.59;100.00
74524;BME280;63074;44.696;10.358;2023-03-01T09:26:47;100162.03;;;3.55;100.00
74524;BME280;63074;44.696;10.358;2023-03-01T09:29:14;100162.22;;;3.54;100.00
74524;BME280;63074;44.696;10.358;2023-03-01T09:31:40;100161.59;;;3.52;100.00
74524;BME280;63074;44.696;10.358;2023-03-01T09:34:07;100152.38;;;3.33;100.00
74524;BME280;63074;44.696;10.358;2023-03-01T09:36:33;100153.03;;;3.35;100.00
74524;BME280;63074;44.696;10.358;2023-03-01T09:39:00;100161.53;;;3.45;100.00
74524;BME280;63074;44.696;10.358;2023-03-01T09:44:31;100157.66;;;3.48;100.00
74524;BME280;63074;44.696;10.358;2023-03-01T09:46:59;100151.59;;;3.54;100.00
74524;BME280;63074;44.696;10.358;2023-03-01T09:49:29;100145.09;;;3.56;100.00
74524;BME280;63074;44.696;10.358;2023-03-01T09:54:22;100139.38;;;3.38;100.00
74524;BME280;63074;44.696;10.358;2023-03-01T09:57:17;100135.63;;;3.32;100.00
74524;BME280;63074;44.696;10.358;2023-03-01T10:02:28;100134.09;;;3.23;100.00
74524;BME280;63074;44.696;10.358;2023-03-01T10:10:38;100122.88;;;3.43;100.00
74524;BME280;63074;44.696;10.358;2023-03-01T10:16:18;100118.97;;;3.60;100.00
74524;BME280;63074;44.696;10.358;2023-03-01T10:18:51;100117.59;;;3.64;100.00
74524;BME280;63074;44.696;10.358;2023-03-01T10:21:20;100106.41;;;3.68;100.00
74524;BME280;63074;44.696;10.358;2023-03-01T10:23:49;100095.19;;;3.73;100.00
74524;BME280;63074;44.696;10.358;2023-03-01T10:34:29;100088.53;;;3.62;100.00
74524;BME280;63074;44.696;10.358;2023-03-01T10:37:14;100083.16;;;3.77;100.00
74524;BME280;63074;44.696;10.358;2023-03-01T10:42:38;100082.75;;;3.73;100.00
74524;BME280;63074;44.696;10.358;2023-03-01T10:45:34;100082.78;;;3.80;100.00
74524;BME280;63074;44.696;10.358;2023-03-01T10:48:19;100078.00;;;3.69;100.00
74524;BME280;63074;44.696;10.358;2023-03-01T10:53:27;100064.88;;;3.89;100.00
74524;BME280;63074;44.696;10.358;2023-03-01T10:56:10;100067.25;;;4.05;100.00
74524;BME280;63074;44.696;10.358;2023-03-01T10:58:41;100063.56;;;4.06;100.00
74524;BME280;63074;44.696;10.358;2023-03-01T11:01:26;100045.00;;;4.13;100.00
74524;BME280;63074;44.696;10.358;2023-03-01T11:04:10;100051.19;;;4.20;100.00
74524;BME280;63074;44.696;10.358;2023-03-01T11:06:39;100052.72;;;4.35;100.00
74524;BME280;63074;44.696;10.358;2023-03-01T11:09:24;100038.09;;;4.18;100.00
74524;BME280;63074;44.696;10.358;2023-03-01T11:11:55;100039.44;;;4.35;100.00
74524;BME280;63074;44.696;10.358;2023-03-01T11:14:53;100037.13;;;4.26;100.00
74524;BME280;63074;44.696;10.358;2023-03-01T11:17:30;100036.38;;;4.38;100.00
74524;BME280;63074;44.696;10.358;2023-03-01T11:20:18;100032.16;;;4.51;100.00
74524;BME280;63074;44.696;10.358;2023-03-01T11:23:30;100035.34;;;4.39;100.00
74524;BME280;63074;44.696;10.358;2023-03-01T11:26:01;100034.84;;;4.23;100.00
74524;BME280;63074;44.696;10.358;2023-03-01T11:28:29;100043.31;;;4.33;100.00
74524;BME280;63074;44.696;10.358;2023-03-01T11:31:08;100047.00;;;4.04;100.00
74524;BME280;63074;44.696;10.358;2023-03-01T11:34:00;100042.59;;;4.18;100.00
74524;BME280;63074;44.696;10.358;2023-03-01T11:36:58;100050.63;;;3.96;100.00
74524;BME280;63074;44.696;10.358;2023-03-01T11:39:39;100059.50;;;3.82;100.00
74524;BME280;63074;44.696;10.358;2023-03-01T11:45:06;100075.06;;;3.64;100.00
74524;BME280;63074;44.696;10.358;2023-03-01T11:47:58;100074.69;;;3.88;100.00
74524;BME280;63074;44.696;10.358;2023-03-01T12:02:02;100081.06;;;3.51;100.00
74524;BME280;63074;44.696;10.358;2023-03-01T12:09:25;100083.13;;;3.70;100.00
74524;BME280;63074;44.696;10.358;2023-03-01T12:22:38;100080.69;;;3.33;100.00
74524;BME280;63074;44.696;10.358;2023-03-01T12:28:18;100072.06;;;2.95;100.00
74524;BME280;63074;44.696;10.358;2023-03-01T12:39:38;100086.06;;;2.89;100.00
74524;BME280;63074;44.696;10.358;2023-03-01T12:42:31;100085.34;;;2.80;100.00
74524;BME280;63074;44.696;10.358;2023-03-01T12:50:29;100080.03;;;2.65;100.00
74524;BME280;63074;44.696;10.358;2023-03-01T12:53:02;100072.06;;;2.65;100.00
74524;BME280;63074;44.696;10.358;2023-03-01T12:55:38;100065.16;;;2.50;100.00
74524;BME280;63074;44.696;10.358;2023-03-01T13:06:44;100064.84;;;2.74;100.00
74524;BME280;63074;44.696;10.358;2023-03-01T13:12:44;100053.78;;;2.41;100.00
74524;BME280;63074;44.696;10.358;2023-03-01T13:17:51;100046.38;;;2.36;100.00
74524;BME280;63074;44.696;10.358;2023-03-01T13:28:49;100010.00;;;2.30;100.00
74524;BME280;63074;44.696;10.358;2023-03-01T13:33:46;100003.13;;;2.36;100.00
74524;BME280;63074;44.696;10.358;2023-03-01T13:39:04;100011.91;;;2.36;100.00
74524;BME280;63074;44.696;10.358;2023-03-01T13:41:52;100010.63;;;2.32;100.00
74524;BME280;63074;44.696;10.358;2023-03-01T13:46:49;100043.28;;;2.48;100.00
74524;BME280;63074;44.696;10.358;2023-03-01T13:49:21;100061.47;;;2.51;100.00
74524;BME280;63074;44.696;10.358;2023-03-01T13:51:49;100060.38;;;2.45;100.00
74524;BME280;63074;44.696;10.358;2023-03-01T13:54:20;100059.56;;;2.45;100.00
74524;BME280;63074;44.696;10.358;2023-03-01T13:56:50;100051.88;;;2.50;100.00
74524;BME280;63074;44.696;10.358;2023-03-01T13:59:21;100063.03;;;2.30;100.00
74524;BME280;63074;44.696;10.358;2023-03-01T14:01:59;100049.50;;;2.25;100.00
74524;BME280;63074;44.696;10.358;2023-03-01T14:04:28;100056.16;;;2.36;100.00
74524;BME280;63074;44.696;10.358;2023-03-01T14:07:20;100052.06;;;2.48;100.00
74524;BME280;63074;44.696;10.358;2023-03-01T14:09:57;100048.13;;;2.59;100.00
74524;BME280;63074;44.696;10.358;2023-03-01T14:22:41;100053.25;;;2.46;100.00
74524;BME280;63074;44.696;10.358;2023-03-01T14:28:04;100055.16;;;2.37;100.00
74524;BME280;63074;44.696;10.358;2023-03-01T14:33:05;100051.03;;;2.34;100.00
74524;BME280;63074;44.696;10.358;2023-03-01T14:35:34;100043.72;;;2.22;100.00
74524;BME280;63074;44.696;10.358;2023-03-01T14:38:02;100044.44;;;2.16;100.00
74524;BME280;63074;44.696;10.358;2023-03-01T14:40:36;100052.16;;;2.25;100.00
74524;BME280;63074;44.696;10.358;2023-03-01T14:43:09;100037.31;;;2.16;100.00
74524;BME280;63074;44.696;10.358;2023-03-01T14:45:37;100043.16;;;2.12;100.00
74524;BME280;63074;44.696;10.358;2023-03-01T14:48:05;100039.25;;;2.22;100.00
74524;BME280;63074;44.696;10.358;2023-03-01T14:50:34;100045.44;;;2.15;100.00
74524;BME280;63074;44.696;10.358;2023-03-01T14:53:04;100046.44;;;1.99;100.00
74524;BME280;63074;44.696;10.358;2023-03-01T14:55:40;100050.75;;;2.00;100.00
74524;BME280;63074;44.696;10.358;2023-03-01T14:58:18;100046.34;;;2.07;100.00
74524;BME280;63074;44.696;10.358;2023-03-01T15:01:04;100051.97;;;2.27;100.00
74524;BME280;63074;44.696;10.358;2023-03-01T15:03:31;100051.69;;;2.22;100.00
74524;BME280;63074;44.696;10.358;2023-03-01T15:06:01;100049.31;;;2.27;100.00
74524;BME280;63074;44.696;10.358;2023-03-01T15:08:28;100049.94;;;2.14;100.00